Time;durP1;ratioP1;P1;durP2;ratioP2;P2;SDS_P1;SDS_P2;PMS_P1;PMS_P2;Temp;Humidity;BMP_temperature;BMP_pressure;BME280_temperature;BME280_humidity;BME280_pressure;Samples;Min_cycle;Max_cycle;Signal;HPM_P1;HPM_P2
2022/04/18 00:02:04;;;;;;;8.93;1.48;;;12.10;99.90;;;;;;5022173;28;20068;-70
2022/04/18 00:04:30;;;;;;;10.55;1.25;;;12.10;99.90;;;;;;5005997;28;20293;-71
2022/04/18 00:06:56;;;;;;;6.63;1.20;;;12.00;99.90;;;;;;5022092;28;20029;-71
2022/04/18 00:09:22;;;;;;;6.45;1.50;;;11.90;99.90;;;;;;5006320;28;20339;-72
2022/04/18 00:11:47;;;;;;;11.93;1.10;;;11.80;99.90;;;;;;5012830;28;20017;-72
2022/04/18 00:14:13;;;;;;;7.50;1.08;;;11.60;99.90;;;;;;5028780;28;20025;-72
2022/04/18 00:16:39;;;;;;;6.55;0.90;;;11.60;99.90;;;;;;5046985;28;20022;-72
2022/04/18 00:19:05;;;;;;;6.68;1.10;;;11.50;99.90;;;;;;5045242;28;20304;-72
2022/04/18 00:21:31;;;;;;;15.48;1.33;;;11.40;99.90;;;;;;5029542;28;20068;-71
2022/04/18 00:23:57;;;;;;;9.93;1.27;;;11.40;99.90;;;;;;5028971;28;20048;-71
2022/04/18 00:26:22;;;;;;;8.38;1.50;;;11.40;99.90;;;;;;5045312;28;20022;-71
2022/04/18 00:28:48;;;;;;;8.05;1.20;;;11.40;99.90;;;;;;5046391;28;20240;-71
2022/04/18 00:31:14;;;;;;;16.52;1.30;;;11.40;99.90;;;;;;5028745;28;20084;-71
2022/04/18 00:33:40;;;;;;;9.45;1.40;;;11.40;99.90;;;;;;5027947;28;20307;-72
2022/04/18 00:36:06;;;;;;;12.95;1.90;;;11.40;99.90;;;;;;5028500;28;20340;-72
2022/04/18 00:38:32;;;;;;;13.00;1.83;;;11.40;99.90;;;;;;5046434;28;20063;-72
2022/04/18 00:40:57;;;;;;;6.88;1.20;;;11.40;99.90;;;;;;5044598;28;20021;-72
2022/04/18 00:43:43;;;;;;;10.10;1.50;;;11.30;99.90;;;;;;5027856;28;20368;-71
2022/04/18 00:46:10;;;;;;;8.77;0.95;;;11.30;99.90;;;;;;5026627;28;20025;-72
2022/04/18 00:48:36;;;;;;;10.05;1.40;;;11.30;99.90;;;;;;5044827;28;20059;-72
2022/04/18 00:51:04;;;;;;;8.82;1.30;;;11.30;99.90;;;;;;5044441;28;20021;-72
2022/04/18 00:53:31;;;;;;;7.40;1.20;;;11.20;99.90;;;;;;5027731;28;20304;-71
2022/04/18 00:55:58;;;;;;;11.07;1.33;;;11.20;99.90;;;;;;5028714;28;20155;-71
2022/04/18 00:58:24;;;;;;;11.85;1.40;;;11.10;99.90;;;;;;5044518;28;20029;-72
2022/04/18 01:00:50;;;;;;;14.98;1.80;;;11.10;99.90;;;;;;5045217;28;20025;-72
2022/04/18 01:03:16;;;;;;;14.45;2.10;;;11.10;99.90;;;;;;5045814;28;20017;-71
2022/04/18 01:05:43;;;;;;;13.07;2.08;;;11.10;99.90;;;;;;5045006;28;20036;-72
2022/04/18 01:08:09;;;;;;;12.18;1.30;;;11.00;99.90;;;;;;5028177;28;20315;-72
2022/04/18 01:10:36;;;;;;;9.70;1.25;;;11.00;99.90;;;;;;5044880;28;20022;-72
2022/04/18 01:13:02;;;;;;;11.27;1.23;;;10.90;99.90;;;;;;5014593;28;20018;-72
2022/04/18 01:15:28;;;;;;;8.82;1.02;;;10.90;99.90;;;;;;5024282;28;20348;-71
2022/04/18 01:17:54;;;;;;;9.60;1.73;;;10.80;99.90;;;;;;5007632;28;20321;-72
2022/04/18 01:20:19;;;;;;;8.90;0.93;;;10.80;99.90;;;;;;5024305;28;20037;-72
2022/04/18 01:22:45;;;;;;;14.65;1.30;;;10.80;99.90;;;;;;5040606;28;20247;-72
2022/04/18 01:30:44;;;;;;;12.00;2.00;;;10.70;99.90;;;;;;5024579;28;20018;-72
2022/04/18 01:33:10;;;;;;;9.68;1.48;;;10.60;99.90;;;;;;5027288;28;20018;-69
2022/04/18 01:35:36;;;;;;;12.55;1.92;;;10.60;99.90;;;;;;5043632;28;20025;-72
2022/04/18 01:38:02;;;;;;;15.63;1.58;;;10.60;99.90;;;;;;5044310;28;20045;-73
2022/04/18 01:40:28;;;;;;;11.30;1.73;;;10.60;99.90;;;;;;5027762;28;20041;-72
2022/04/18 01:42:53;;;;;;;10.43;1.98;;;10.60;99.90;;;;;;5027369;28;20112;-72
2022/04/18 01:45:19;;;;;;;17.38;1.52;;;10.60;99.90;;;;;;5043408;28;20064;-72
2022/04/18 01:47:45;;;;;;;10.75;1.42;;;10.60;99.90;;;;;;5041586;28;20048;-71
2022/04/18 01:50:10;;;;;;;13.00;1.80;;;10.60;99.90;;;;;;5011232;28;20025;-71
2022/04/18 01:52:36;;;;;;;10.18;1.30;;;10.60;99.90;;;;;;5010713;28;20096;-72
2022/04/18 01:55:02;;;;;;;13.85;1.65;;;10.50;99.90;;;;;;5044640;28;20036;-72
2022/04/18 01:57:27;;;;;;;13.57;1.50;;;10.50;99.90;;;;;;5043434;28;20026;-71
2022/04/18 01:59:53;;;;;;;18.67;1.67;;;10.50;99.90;;;;;;5043665;28;20278;-72
2022/04/18 02:02:18;;;;;;;14.55;2.00;;;10.40;99.90;;;;;;5027111;28;20017;-71
2022/04/18 02:04:44;;;;;;;11.88;1.17;;;10.40;99.90;;;;;;5043651;28;20104;-71
2022/04/18 02:07:10;;;;;;;10.32;1.48;;;10.40;99.90;;;;;;5026881;28;20017;-71
2022/04/18 02:09:37;;;;;;;11.38;1.77;;;10.30;99.90;;;;;;5026861;28;20100;-72
2022/04/18 02:12:05;;;;;;;12.50;1.85;;;10.40;99.90;;;;;;5038045;28;20037;-72
2022/04/18 02:14:30;;;;;;;8.80;1.42;;;10.40;99.90;;;;;;5023207;28;20096;-71
2022/04/18 02:16:56;;;;;;;12.82;1.65;;;10.30;99.90;;;;;;5006807;28;20072;-71
2022/04/18 02:19:22;;;;;;;11.20;1.40;;;10.30;99.90;;;;;;5022782;28;20100;-71
2022/04/18 02:21:48;;;;;;;9.05;1.42;;;10.30;99.90;;;;;;5023209;28;20022;-71
2022/04/18 02:24:14;;;;;;;7.88;1.45;;;10.30;99.90;;;;;;5023264;28;20144;-71
2022/04/18 02:26:40;;;;;;;9.20;1.55;;;10.30;99.90;;;;;;5022785;28;20021;-71
2022/04/18 02:29:06;;;;;;;14.35;2.28;;;10.20;99.90;;;;;;5022736;28;20064;-71
2022/04/18 02:31:31;;;;;;;12.98;1.40;;;10.20;99.90;;;;;;5024091;28;20049;-71
2022/04/18 02:33:57;;;;;;;11.82;1.45;;;10.30;99.90;;;;;;5030845;28;20029;-70
2022/04/18 02:36:23;;;;;;;7.22;1.20;;;10.20;99.90;;;;;;5042643;28;20052;-72
2022/04/18 02:38:49;;;;;;;12.38;2.00;;;10.30;99.90;;;;;;5009659;28;20368;-71
2022/04/18 02:41:14;;;;;;;14.40;1.50;;;10.20;99.90;;;;;;5025960;28;20029;-71
2022/04/18 02:43:40;;;;;;;6.88;1.40;;;10.20;99.90;;;;;;5042235;28;20067;-72
2022/04/18 02:46:05;;;;;;;11.23;1.38;;;10.20;99.90;;;;;;5009530;28;20308;-71
2022/04/18 02:48:31;;;;;;;9.90;1.30;;;10.20;99.90;;;;;;5040643;28;20036;-71
2022/04/18 02:50:57;;;;;;;18.80;1.75;;;10.20;99.90;;;;;;5026234;28;20094;-70
2022/04/18 02:53:23;;;;;;;13.45;1.60;;;10.20;99.90;;;;;;5043768;28;20029;-71
2022/04/18 02:55:48;;;;;;;10.27;1.33;;;10.10;99.90;;;;;;5025702;28;20056;-71
2022/04/18 02:58:14;;;;;;;16.13;1.30;;;10.10;99.90;;;;;;5025801;28;20041;-71
2022/04/18 03:00:40;;;;;;;17.13;1.80;;;10.10;99.90;;;;;;5026609;28;20091;-71
2022/04/18 03:03:06;;;;;;;13.65;1.83;;;10.10;99.90;;;;;;5025866;28;20049;-71
2022/04/18 03:05:31;;;;;;;15.35;1.90;;;10.10;99.90;;;;;;5025987;28;20025;-71
2022/04/18 03:07:57;;;;;;;12.60;1.77;;;10.00;99.90;;;;;;5042726;28;20067;-71
2022/04/18 03:11:02;;;;;;;14.45;2.33;;;10.10;99.90;;;;;;5042679;28;20237;-71
2022/04/18 03:13:08;;;;;;;18.60;1.90;;;10.10;99.90;;;;;;5028228;28;20029;-71
2022/04/18 03:15:34;;;;;;;9.30;1.70;;;10.00;99.90;;;;;;5022890;28;20017;-71
2022/04/18 03:18:00;;;;;;;14.32;2.08;;;10.00;99.90;;;;;;5022240;28;20332;-72
2022/04/18 03:20:25;;;;;;;12.93;1.88;;;10.00;99.90;;;;;;5006540;28;20378;-71
2022/04/18 03:22:51;;;;;;;10.30;1.73;;;10.00;99.90;;;;;;5006208;28;20317;-71
2022/04/18 03:25:17;;;;;;;11.27;1.60;;;10.00;99.90;;;;;;5022452;28;20025;-70
2022/04/18 03:27:43;;;;;;;12.65;2.10;;;10.00;99.90;;;;;;5005830;28;20032;-70
2022/04/18 03:30:09;;;;;;;16.05;1.95;;;10.00;99.90;;;;;;5022599;28;20245;-71
2022/04/18 03:32:35;;;;;;;16.58;1.85;;;10.00;99.90;;;;;;5022303;28;20113;-70
2022/04/18 03:35:00;;;;;;;12.45;1.60;;;10.00;99.90;;;;;;5055787;28;20021;-71
2022/04/18 03:40:12;;;;;;;23.75;3.00;;;9.90;99.90;;;;;;5015231;28;20044;-70
2022/04/18 03:42:38;;;;;;;12.80;1.58;;;9.80;99.90;;;;;;5008999;28;20029;-71
2022/04/18 03:45:05;;;;;;;19.98;2.20;;;9.90;99.90;;;;;;5027245;28;20105;-71
2022/04/18 03:47:31;;;;;;;20.23;2.10;;;9.80;99.90;;;;;;5027971;28;20021;-71
2022/04/18 03:49:57;;;;;;;17.58;2.00;;;9.80;99.90;;;;;;5045455;28;20052;-71
2022/04/18 03:52:24;;;;;;;15.68;2.25;;;9.80;99.90;;;;;;5045733;28;20108;-71
2022/04/18 03:54:50;;;;;;;12.88;1.85;;;9.80;99.90;;;;;;5046057;28;20247;-71
2022/04/18 03:57:16;;;;;;;14.23;1.92;;;9.80;99.90;;;;;;5045440;28;20072;-70
2022/04/18 03:59:42;;;;;;;20.65;1.90;;;9.80;99.90;;;;;;5029673;28;20068;-70
2022/04/18 04:02:08;;;;;;;17.02;2.88;;;9.80;99.90;;;;;;5012908;28;20051;-71
2022/04/18 04:04:34;;;;;;;15.70;2.30;;;9.80;99.90;;;;;;5045695;28;20017;-71
2022/04/18 04:07:00;;;;;;;15.57;2.22;;;9.80;99.90;;;;;;5045551;28;20092;-71
2022/04/18 04:09:26;;;;;;;19.75;2.85;;;9.70;99.90;;;;;;5046056;28;20034;-71
2022/04/18 04:11:51;;;;;;;15.52;1.70;;;9.70;99.90;;;;;;5009368;28;20098;-71
2022/04/18 04:14:18;;;;;;;12.75;2.10;;;9.70;99.90;;;;;;5025408;28;20079;-71
2022/04/18 04:16:44;;;;;;;14.98;1.92;;;9.70;99.90;;;;;;5025685;28;20323;-71
2022/04/18 04:19:10;;;;;;;23.23;3.03;;;9.70;99.90;;;;;;5025624;28;20021;-71
2022/04/18 04:21:35;;;;;;;18.00;2.30;;;9.70;99.90;;;;;;5025730;28;20198;-71
2022/04/18 04:24:01;;;;;;;16.00;2.30;;;9.70;99.90;;;;;;5026512;28;20072;-71
2022/04/18 04:26:27;;;;;;;16.55;3.55;;;9.70;99.90;;;;;;5025621;28;20022;-71
2022/04/18 04:28:53;;;;;;;12.82;2.80;;;9.60;99.90;;;;;;5026660;28;20072;-72
2022/04/18 04:31:19;;;;;;;10.68;2.08;;;9.60;99.90;;;;;;5025757;28;20022;-71
2022/04/18 04:33:44;;;;;;;18.15;2.75;;;9.70;99.90;;;;;;5031450;28;20071;-71
2022/04/18 04:36:12;;;;;;;10.77;2.47;;;9.70;99.90;;;;;;5012602;28;20220;-71
2022/04/18 04:38:38;;;;;;;19.25;2.20;;;9.70;99.90;;;;;;5012389;28;20029;-71
2022/04/18 04:41:04;;;;;;;21.52;2.67;;;9.70;99.90;;;;;;5028960;28;20021;-71
2022/04/18 04:43:30;;;;;;;15.65;2.10;;;9.70;99.90;;;;;;5011842;28;20028;-71
2022/04/18 04:45:57;;;;;;;16.52;2.15;;;9.70;99.90;;;;;;5045291;28;20100;-71
2022/04/18 04:48:23;;;;;;;14.95;2.05;;;9.80;99.90;;;;;;5024496;28;20020;-72
2022/04/18 04:50:49;;;;;;;19.08;2.63;;;9.70;99.90;;;;;;5026605;28;20022;-72
2022/04/18 04:53:15;;;;;;;13.23;2.45;;;9.70;99.90;;;;;;5024789;28;20101;-71
2022/04/18 04:55:41;;;;;;;16.02;2.47;;;9.70;99.90;;;;;;5023856;28;20045;-71
2022/04/18 04:58:09;;;;;;;16.95;3.03;;;9.80;99.90;;;;;;5018369;28;20037;-71
2022/04/18 05:00:35;;;;;;;25.50;2.90;;;9.70;99.90;;;;;;5028606;28;20029;-71
2022/04/18 05:03:01;;;;;;;18.42;2.53;;;9.80;99.90;;;;;;5028440;28;20273;-71
2022/04/18 05:05:26;;;;;;;15.10;2.25;;;9.80;99.90;;;;;;5044767;28;20018;-71
2022/04/18 05:07:52;;;;;;;15.93;2.58;;;9.70;99.90;;;;;;5028186;28;20163;-71
2022/04/18 05:10:18;;;;;;;17.15;2.55;;;9.70;99.90;;;;;;5044569;28;20025;-70
2022/04/18 05:12:44;;;;;;;26.25;3.47;;;9.70;99.90;;;;;;5033061;28;20026;-71
2022/04/18 05:15:10;;;;;;;20.85;3.20;;;9.70;99.90;;;;;;5041225;28;20060;-71
2022/04/18 05:17:35;;;;;;;12.35;2.45;;;9.70;99.90;;;;;;5024197;28;20057;-71
2022/04/18 05:20:03;;;;;;;17.63;2.70;;;9.70;99.90;;;;;;5024605;28;20064;-71
2022/04/18 05:22:29;;;;;;;16.17;2.50;;;9.70;99.90;;;;;;5041142;28;20021;-71
2022/04/18 05:24:55;;;;;;;21.77;3.97;;;9.70;99.90;;;;;;5025906;28;20018;-70
2022/04/18 05:27:22;;;;;;;23.35;2.78;;;9.80;99.90;;;;;;5040725;28;20334;-71
2022/04/18 05:29:48;;;;;;;22.58;2.38;;;9.80;99.90;;;;;;5024428;28;20017;-71
2022/04/18 05:32:13;;;;;;;16.83;2.33;;;9.80;99.90;;;;;;5024437;28;20017;-71
2022/04/18 05:34:39;;;;;;;23.88;2.55;;;9.80;99.90;;;;;;5038253;28;20028;-72
2022/04/18 05:37:05;;;;;;;18.38;2.83;;;9.80;99.90;;;;;;5045292;28;20021;-71
2022/04/18 05:39:31;;;;;;;20.25;2.88;;;9.90;99.90;;;;;;5044191;28;20370;-71
2022/04/18 05:41:57;;;;;;;13.50;2.65;;;9.90;99.90;;;;;;5043862;28;20028;-72
2022/04/18 05:44:23;;;;;;;23.77;3.13;;;9.90;99.90;;;;;;5010936;28;20063;-72
2022/04/18 05:46:49;;;;;;;22.63;2.92;;;9.90;99.90;;;;;;5027595;28;20030;-71
2022/04/18 05:49:15;;;;;;;22.15;3.70;;;10.00;99.90;;;;;;5008659;28;20021;-71
2022/04/18 05:51:41;;;;;;;29.63;3.20;;;10.00;99.90;;;;;;5044015;28;20028;-72
2022/04/18 05:54:06;;;;;;;16.90;3.60;;;10.10;99.90;;;;;;5043771;28;20021;-71
2022/04/18 05:56:32;;;;;;;23.00;2.80;;;10.10;99.90;;;;;;5026450;28;20126;-72
2022/04/18 05:58:59;;;;;;;21.00;2.88;;;10.20;99.90;;;;;;5044617;28;20041;-73
2022/04/18 06:01:24;;;;;;;20.48;2.67;;;10.20;99.90;;;;;;5027164;28;20021;-72
2022/04/18 06:03:50;;;;;;;18.25;2.53;;;10.20;99.90;;;;;;5027004;28;20185;-72
2022/04/18 06:06:16;;;;;;;20.02;3.20;;;10.20;99.90;;;;;;5026828;28;20017;-72
2022/04/18 06:08:42;;;;;;;19.65;2.92;;;10.20;99.90;;;;;;5043269;28;20021;-72
2022/04/18 06:11:08;;;;;;;18.02;2.90;;;10.20;99.90;;;;;;5043254;28;20330;-72
2022/04/18 06:13:34;;;;;;;17.70;2.50;;;10.20;99.90;;;;;;5025258;28;20034;-71
2022/04/18 06:16:00;;;;;;;22.60;2.90;;;10.20;99.90;;;;;;5023208;28;20018;-72
2022/04/18 06:18:26;;;;;;;18.80;2.45;;;10.30;99.90;;;;;;5023007;28;20093;-72
2022/04/18 06:20:52;;;;;;;20.80;3.10;;;10.30;99.90;;;;;;5023199;28;20093;-71
2022/04/18 06:23:18;;;;;;;21.75;3.40;;;10.40;99.90;;;;;;5023351;28;20048;-72
2022/04/18 06:25:44;;;;;;;24.60;3.83;;;10.40;99.90;;;;;;5023523;28;20030;-72
2022/04/18 06:28:12;;;;;;;20.30;4.68;;;10.50;99.90;;;;;;5022970;28;20045;-72
2022/04/18 06:30:38;;;;;;;18.73;3.17;;;10.60;99.90;;;;;;5023260;28;20028;-72
2022/04/18 06:33:04;;;;;;;22.52;3.58;;;10.60;99.90;;;;;;5024119;28;20037;-71
2022/04/18 06:35:30;;;;;;;23.30;3.75;;;10.70;99.90;;;;;;5042820;28;20100;-71
2022/04/18 06:37:55;;;;;;;19.20;3.03;;;10.70;99.90;;;;;;5042885;28;20029;-71
2022/04/18 06:40:21;;;;;;;24.30;2.78;;;10.70;99.90;;;;;;5042711;28;20029;-71
2022/04/18 06:42:47;;;;;;;22.00;3.30;;;10.70;99.90;;;;;;5009782;28;20197;-72
2022/04/18 06:45:13;;;;;;;22.45;2.53;;;10.70;99.90;;;;;;5009910;28;20025;-72
2022/04/18 06:47:38;;;;;;;19.80;3.03;;;10.70;99.90;;;;;;5042260;28;20013;-72
2022/04/18 06:50:08;;;;;;;26.50;3.35;;;10.70;99.90;;;;;;5024575;28;20033;-71
2022/04/18 06:52:42;;;;;;;19.73;3.47;;;10.70;99.90;;;;;;5042717;28;20017;-72
2022/04/18 06:55:08;;;;;;;26.75;2.97;;;10.70;99.90;;;;;;5042644;28;20037;-72
2022/04/18 06:57:35;;;;;;;20.50;3.05;;;10.70;99.90;;;;;;5009770;28;20076;-71
2022/04/18 07:00:02;;;;;;;18.50;2.92;;;10.80;99.90;;;;;;5042260;28;20025;-72
2022/04/18 07:02:28;;;;;;;27.00;4.32;;;10.80;99.90;;;;;;5026343;28;20049;-72
2022/04/18 07:04:53;;;;;;;16.40;3.42;;;10.80;99.90;;;;;;5025858;28;20061;-72
2022/04/18 07:07:19;;;;;;;14.80;3.05;;;10.80;99.90;;;;;;5042196;28;20029;-71
2022/04/18 07:09:46;;;;;;;17.52;3.60;;;10.80;99.90;;;;;;5025992;28;20041;-72
2022/04/18 07:12:11;;;;;;;24.55;3.40;;;10.90;99.90;;;;;;5019402;28;20026;-70
2022/04/18 07:14:38;;;;;;;28.30;4.05;;;10.90;99.90;;;;;;5023134;28;20323;-71
2022/04/18 07:17:06;;;;;;;21.45;3.28;;;11.00;99.90;;;;;;5039163;28;20125;-71
2022/04/18 07:19:33;;;;;;;24.77;3.28;;;11.00;99.90;;;;;;5005383;28;20096;-71
2022/04/18 07:21:58;;;;;;;19.08;2.97;;;11.00;99.90;;;;;;5039016;28;20021;-71
2022/04/18 07:24:24;;;;;;;11.18;2.80;;;11.10;99.90;;;;;;5022851;28;20028;-71
2022/04/18 07:26:51;;;;;;;20.35;2.63;;;11.20;99.90;;;;;;5022674;28;20109;-71
2022/04/18 07:29:16;;;;;;;23.58;3.40;;;11.30;99.90;;;;;;5023609;28;20021;-71
2022/04/18 07:31:42;;;;;;;25.83;4.35;;;11.30;99.90;;;;;;5022509;28;20029;-71
2022/04/18 07:34:08;;;;;;;19.13;2.80;;;11.40;99.90;;;;;;5032032;28;20244;-71
2022/04/18 07:36:34;;;;;;;16.08;2.72;;;11.50;99.90;;;;;;5042232;28;20100;-71
2022/04/18 07:39:00;;;;;;;25.30;3.60;;;11.50;99.90;;;;;;5025881;28;20039;-70
2022/04/18 07:41:28;;;;;;;21.92;3.97;;;11.60;99.90;;;;;;5025516;28;20204;-71
2022/04/18 07:43:55;;;;;;;17.88;2.38;;;11.70;99.90;;;;;;5025728;28;20316;-71
2022/04/18 07:46:21;;;;;;;19.30;2.72;;;11.80;99.90;;;;;;5025753;28;20026;-71
2022/04/18 07:48:49;;;;;;;21.60;3.60;;;11.80;99.90;;;;;;5041493;28;20054;-71
2022/04/18 07:54:04;;;;;;;22.17;2.97;;;12.20;99.40;;;;;;5028159;28;20020;-72
2022/04/18 07:56:30;;;;;;;17.38;2.50;;;12.30;98.90;;;;;;5008779;28;20052;-72
2022/04/18 07:58:56;;;;;;;16.35;2.95;;;12.40;98.70;;;;;;5022530;28;20034;-71
2022/04/18 08:01:22;;;;;;;15.95;2.45;;;12.50;98.20;;;;;;5021780;28;20049;-71
2022/04/18 08:03:49;;;;;;;16.50;3.10;;;12.60;97.20;;;;;;5022126;28;20028;-71
2022/04/18 08:06:16;;;;;;;21.15;2.80;;;12.70;97.20;;;;;;5022114;28;20264;-71
2022/04/18 08:08:42;;;;;;;14.93;2.67;;;12.80;96.80;;;;;;5022041;28;20304;-72
2022/04/18 08:11:11;;;;;;;21.38;2.78;;;13.00;96.60;;;;;;5021817;28;20085;-72
2022/04/18 08:13:39;;;;;;;14.57;2.53;;;13.10;95.90;;;;;;5021905;28;20108;-71
2022/04/18 08:16:05;;;;;;;12.30;2.38;;;13.20;95.50;;;;;;5023287;28;20089;-71
2022/04/18 08:18:31;;;;;;;14.15;3.00;;;13.10;94.60;;;;;;5021283;28;20041;-72
2022/04/18 08:20:57;;;;;;;10.90;2.22;;;13.10;94.10;;;;;;5022189;28;20021;-72
2022/04/18 08:23:22;;;;;;;11.20;1.90;;;13.20;93.50;;;;;;5021698;28;20033;-71
2022/04/18 08:25:48;;;;;;;7.22;1.85;;;13.20;93.70;;;;;;5023337;28;20033;-71
2022/04/18 08:28:14;;;;;;;16.95;3.03;;;13.30;93.00;;;;;;5022034;28;20025;-71
2022/04/18 08:30:40;;;;;;;13.63;2.38;;;13.20;92.90;;;;;;5039174;28;20030;-71
2022/04/18 08:33:06;;;;;;;11.00;2.22;;;13.20;92.70;;;;;;5026578;28;20117;-71
2022/04/18 08:35:32;;;;;;;12.52;1.73;;;13.20;91.70;;;;;;5045117;28;20047;-73
2022/04/18 08:38:00;;;;;;;9.00;2.47;;;13.20;91.90;;;;;;5045422;28;20033;-72
2022/04/18 08:40:26;;;;;;;10.23;1.90;;;13.30;92.30;;;;;;5045823;28;20021;-71
2022/04/18 08:42:56;;;;;;;11.52;2.78;;;13.20;92.10;;;;;;5028918;28;20028;-71
2022/04/18 08:45:24;;;;;;;13.60;1.92;;;13.20;91.30;;;;;;5045276;28;20088;-71
2022/04/18 08:53:26;;;;;;;10.63;2.15;;;12.90;91.50;;;;;;5029762;28;20043;-72
2022/04/18 08:55:54;;;;;;;14.43;2.08;;;13.00;92.10;;;;;;5028293;28;20120;-71
2022/04/18 08:58:22;;;;;;;12.35;1.98;;;13.00;92.30;;;;;;5045561;28;20211;-71
2022/04/18 09:00:48;;;;;;;16.10;2.70;;;13.10;91.90;;;;;;5028509;28;20029;-71
2022/04/18 09:03:14;;;;;;;12.65;2.47;;;13.20;91.90;;;;;;5027877;28;20026;-71
2022/04/18 09:05:40;;;;;;;11.82;1.98;;;13.30;91.70;;;;;;5045026;28;20301;-71
2022/04/18 09:08:08;;;;;;;15.70;1.90;;;13.20;91.00;;;;;;5027797;28;20021;-71
2022/04/18 09:10:35;;;;;;;16.30;3.13;;;13.20;91.10;;;;;;5028215;28;20027;-71
2022/04/18 09:13:07;;;;;;;10.10;1.85;;;13.20;91.30;;;;;;5044394;28;20028;-72
2022/04/18 09:15:39;;;;;;;10.02;2.20;;;13.30;90.90;;;;;;5028650;28;20092;-71
2022/04/18 09:18:06;;;;;;;;;;;13.30;90.80;;;;;;5027499;28;20049;-71
2022/04/18 09:20:41;;;;;;;9.13;1.90;;;13.20;90.30;;;;;;5028138;28;19908;-71
2022/04/18 09:23:19;;;;;;;12.10;2.42;;;13.10;90.00;;;;;;5027753;28;20017;-71
2022/04/18 09:25:45;;;;;;;15.88;2.00;;;13.10;90.60;;;;;;5027771;28;20028;-71
2022/04/18 09:28:11;;;;;;;9.88;1.88;;;13.20;90.80;;;;;;5027912;28;20029;-71
2022/04/18 09:30:37;;;;;;;15.20;2.50;;;13.20;89.80;;;;;;5027771;28;20332;-71
2022/04/18 09:33:07;;;;;;;11.43;1.92;;;13.20;89.60;;;;;;5043481;28;20017;-71
2022/04/18 09:35:35;;;;;;;9.77;1.90;;;13.30;89.90;;;;;;5027868;28;20312;-72
2022/04/18 09:38:06;;;;;;;10.68;2.00;;;13.30;90.60;;;;;;5043539;28;20029;-71
2022/04/18 09:40:32;;;;;;;15.82;2.25;;;13.40;91.10;;;;;;5028037;28;20320;-72
2022/04/18 09:42:58;;;;;;;10.00;1.60;;;13.40;91.10;;;;;;5043143;28;20063;-71
2022/04/18 09:45:24;;;;;;;11.10;2.60;;;13.40;90.50;;;;;;5043886;28;20028;-71
2022/04/18 09:48:01;;;;;;;8.38;1.63;;;13.50;86.90;;;;;;5027169;28;20025;-71
2022/04/18 09:53:21;;;;;;;4.15;1.48;;;13.70;86.20;;;;;;5042662;28;20058;-72
2022/04/18 09:55:50;;;;;;;8.65;1.55;;;13.90;87.80;;;;;;5026836;28;20135;-71
2022/04/18 09:58:16;;;;;;;14.98;2.08;;;14.00;86.30;;;;;;5033317;28;20041;-71
2022/04/18 10:00:42;;;;;;;7.15;2.00;;;13.90;85.20;;;;;;5023961;28;20097;-71
2022/04/18 10:03:09;;;;;;;11.10;1.70;;;14.00;85.00;;;;;;5023576;28;20018;-71
2022/04/18 10:05:35;;;;;;;11.85;2.10;;;14.10;85.40;;;;;;5023599;28;20026;-71
2022/04/18 10:08:03;;;;;;;8.32;1.65;;;14.10;85.80;;;;;;5024144;28;20028;-71
2022/04/18 10:10:34;;;;;;;9.50;1.73;;;14.10;86.40;;;;;;5023614;28;20305;-72
2022/04/18 10:13:02;;;;;;;9.20;1.65;;;14.30;86.10;;;;;;5016578;28;20018;-72
2022/04/18 10:15:27;;;;;;;6.53;1.70;;;14.50;84.70;;;;;;5023564;28;20309;-72
2022/04/18 10:17:55;;;;;;;6.80;1.52;;;14.60;84.50;;;;;;5022937;28;20033;-71
2022/04/18 10:21:00;;;;;;;8.32;1.58;;;14.80;82.90;;;;;;5023354;28;20053;-71
2022/04/18 10:24:02;;;;;;;9.35;2.08;;;15.00;83.00;;;;;;5026028;28;20022;-71
2022/04/18 10:27:03;;;;;;;9.75;2.10;;;15.20;82.90;;;;;;5026031;28;20022;-71
2022/04/18 10:29:38;;;;;;;7.88;1.40;;;15.50;82.80;;;;;;5028329;28;20026;-72
2022/04/18 10:32:05;;;;;;;12.82;2.10;;;15.60;82.40;;;;;;5024448;28;20088;-72
2022/04/18 10:34:35;;;;;;;9.13;1.90;;;15.80;82.50;;;;;;5026573;28;20021;-71
2022/04/18 10:37:02;;;;;;;9.80;1.90;;;15.70;82.10;;;;;;5042928;28;20028;-72
2022/04/18 10:39:37;;;;;;;7.93;1.20;;;15.80;81.20;;;;;;5026439;28;20025;-71
2022/04/18 10:42:27;;;;;;;8.13;1.10;;;15.80;80.20;;;;;;5026533;28;20033;-72
2022/04/18 10:44:58;;;;;;;9.45;1.98;;;15.50;78.80;;;;;;5042979;28;20026;-71
2022/04/18 10:47:24;;;;;;;6.63;1.42;;;15.30;79.90;;;;;;5026314;28;20045;-71
2022/04/18 10:50:18;;;;;;;6.13;1.40;;;15.10;80.10;;;;;;5025806;28;20296;-71
2022/04/18 10:53:08;;;;;;;4.60;1.10;;;15.00;80.60;;;;;;5013985;28;20022;-71
2022/04/18 10:55:33;;;;;;;9.02;1.80;;;14.90;79.40;;;;;;5028178;28;20021;-71
2022/04/18 10:58:20;;;;;;;9.07;1.48;;;14.80;78.60;;;;;;5042823;28;20048;-72
2022/04/18 11:00:49;;;;;;;6.43;1.60;;;14.70;78.40;;;;;;5028886;28;20017;-72
2022/04/18 11:03:46;;;;;;;6.63;1.17;;;14.70;76.30;;;;;;5026537;28;20041;-71
2022/04/18 11:06:46;;;;;;;4.88;1.20;;;14.80;75.40;;;;;;5042243;28;20078;-71
2022/04/18 11:09:15;;;;;;;8.10;1.75;;;14.90;75.40;;;;;;5042851;28;20017;-71
2022/04/18 11:11:54;;;;;;;7.63;1.20;;;14.90;76.20;;;;;;5039689;28;20040;-71
2022/04/18 11:14:23;;;;;;;6.75;1.40;;;15.10;76.40;;;;;;5038676;28;20022;-71
2022/04/18 11:16:52;;;;;;;6.32;1.17;;;15.40;74.90;;;;;;5022160;28;20367;-71
2022/04/18 11:19:22;;;;;;;5.30;1.35;;;15.40;75.50;;;;;;5038634;28;20075;-72
2022/04/18 11:22:06;;;;;;;2.95;1.33;;;15.60;74.80;;;;;;5038835;28;20026;-72
2022/04/18 11:24:55;;;;;;;7.03;1.42;;;15.70;73.70;;;;;;5021837;28;20025;-71
2022/04/18 11:27:34;;;;;;;3.53;0.98;;;15.70;72.70;;;;;;5006239;28;20101;-71
2022/04/18 11:30:06;;;;;;;5.13;1.33;;;15.90;71.30;;;;;;5038701;28;20029;-71
2022/04/18 11:32:35;;;;;;;4.47;1.27;;;15.90;71.40;;;;;;5006143;28;20264;-71
2022/04/18 11:35:03;;;;;;;6.75;1.45;;;16.10;72.10;;;;;;5039050;28;20018;-72
2022/04/18 11:37:33;;;;;;;8.48;1.10;;;15.90;73.20;;;;;;5025448;28;20029;-72
2022/04/18 11:40:03;;;;;;;4.72;0.93;;;16.10;73.90;;;;;;5009605;28;20053;-72
2022/04/18 11:42:30;;;;;;;5.40;1.30;;;16.30;73.10;;;;;;5042305;28;20094;-72
2022/04/18 11:44:58;;;;;;;7.38;1.55;;;16.40;73.20;;;;;;5025393;28;20252;-72
2022/04/18 11:47:27;;;;;;;5.22;1.20;;;16.40;72.40;;;;;;5009286;28;20017;-72
2022/04/18 11:49:56;;;;;;;8.23;1.20;;;16.20;72.40;;;;;;5042041;28;20033;-72
2022/04/18 11:52:29;;;;;;;7.60;1.15;;;16.40;73.30;;;;;;5042231;28;20064;-72
2022/04/18 11:54:56;;;;;;;6.78;1.40;;;16.50;72.70;;;;;;5007871;28;20017;-72
2022/04/18 11:57:22;;;;;;;4.63;1.20;;;16.50;72.10;;;;;;5025597;28;20041;-72
2022/04/18 11:59:48;;;;;;;2.85;0.88;;;16.60;72.50;;;;;;5041999;28;20324;-72
2022/04/18 12:07:47;;;;;;;6.78;0.93;;;16.90;69.40;;;;;;5045970;28;20049;-71
2022/04/18 12:10:24;;;;;;;6.22;1.17;;;16.70;69.60;;;;;;5029258;28;20260;-71
2022/04/18 12:12:50;;;;;;;3.70;0.80;;;16.50;70.50;;;;;;5033863;28;20022;-71
2022/04/18 12:15:16;;;;;;;3.25;1.00;;;16.50;70.00;;;;;;5042394;28;20356;-71
2022/04/18 12:17:42;;;;;;;6.97;0.98;;;16.50;70.90;;;;;;5025208;28;20030;-71
2022/04/18 12:20:29;;;;;;;9.38;1.42;;;16.40;70.00;;;;;;5025755;28;20026;-71
2022/04/18 12:22:58;;;;;;;5.80;1.13;;;16.30;70.60;;;;;;5008672;28;20088;-71
2022/04/18 12:25:30;;;;;;;6.32;0.93;;;16.20;71.20;;;;;;5025711;28;20021;-71
2022/04/18 12:27:57;;;;;;;6.97;1.15;;;16.20;70.20;;;;;;5009184;28;20224;-72
2022/04/18 12:30:23;;;;;;;4.97;1.13;;;16.20;69.60;;;;;;5025771;28;20036;-72
2022/04/18 12:32:49;;;;;;;2.90;0.70;;;16.20;70.40;;;;;;5041926;28;20026;-72
2022/04/18 12:35:35;;;;;;;3.85;1.05;;;16.30;69.90;;;;;;5040526;28;20137;-72
2022/04/18 12:38:02;;;;;;;2.80;1.10;;;16.20;70.00;;;;;;5011631;28;20026;-72
2022/04/18 12:40:33;;;;;;;6.57;0.98;;;16.00;70.60;;;;;;5008770;28;20030;-72
2022/04/18 12:43:06;;;;;;;3.58;0.70;;;15.90;71.70;;;;;;5008424;28;20022;-71
2022/04/18 12:45:51;;;;;;;2.55;0.65;;;15.80;71.20;;;;;;5009010;28;20053;-71
2022/04/18 12:48:22;;;;;;;6.40;1.30;;;15.60;71.40;;;;;;5023932;28;20021;-71
2022/04/18 12:50:48;;;;;;;4.75;1.27;;;15.50;72.60;;;;;;5041490;28;20197;-72
2022/04/18 12:53:14;;;;;;;5.05;1.10;;;15.60;72.90;;;;;;5025912;28;20018;-72
2022/04/18 12:55:40;;;;;;;7.20;1.30;;;15.70;74.00;;;;;;5039268;28;20084;-72
2022/04/18 12:58:21;;;;;;;7.30;1.30;;;15.80;73.50;;;;;;5044523;28;20320;-72
2022/04/18 13:00:49;;;;;;;4.07;1.17;;;16.00;73.30;;;;;;5028002;28;20021;-72
2022/04/18 13:03:17;;;;;;;5.68;1.52;;;16.30;73.60;;;;;;5027837;28;20029;-72
2022/04/18 13:05:46;;;;;;;8.38;1.35;;;16.50;73.40;;;;;;5044324;28;20047;-72
2022/04/18 13:08:14;;;;;;;8.85;1.45;;;16.60;73.10;;;;;;5044435;28;20257;-72
2022/04/18 13:10:40;;;;;;;10.25;1.73;;;16.60;73.30;;;;;;5027239;28;20021;-72
2022/04/18 13:13:20;;;;;;;8.00;1.27;;;16.60;72.80;;;;;;5030088;28;20064;-72